sensor_id;sensor_type;location;lat;lon;timestamp;P1;durP1;ratioP1;P2;durP2;ratioP2
78443;SDS011;67739;52.986;8.894;2023-03-20T00:01:18;32.08;;;12.32;;
78443;SDS011;67739;52.986;8.894;2023-03-20T00:03:48;29.40;;;12.30;;
78443;SDS011;67739;52.986;8.894;2023-03-20T00:06:18;29.00;;;13.63;;
78443;SDS011;67739;52.986;8.894;2023-03-20T00:08:51;29.17;;;13.48;;
78443;SDS011;67739;52.986;8.894;2023-03-20T00:11:33;25.48;;;11.85;;
78443;SDS011;67739;52.986;8.894;2023-03-20T00:14:05;25.42;;;11.13;;
78443;SDS011;67739;52.986;8.894;2023-03-20T00:16:34;27.73;;;12.52;;
78443;SDS011;67739;52.986;8.894;2023-03-20T00:19:01;25.17;;;12.20;;
78443;SDS011;67739;52.986;8.894;2023-03-20T00:21:27;27.95;;;12.15;;
78443;SDS011;67739;52.986;8.894;2023-03-20T00:23:53;28.65;;;13.48;;
78443;SDS011;67739;52.986;8.894;2023-03-20T00:26:18;27.08;;;12.60;;
78443;SDS011;67739;52.986;8.894;2023-03-20T00:28:48;28.40;;;11.85;;
78443;SDS011;67739;52.986;8.894;2023-03-20T00:33:51;25.00;;;11.90;;
78443;SDS011;67739;52.986;8.894;2023-03-20T00:36:18;25.45;;;12.13;;
78443;SDS011;67739;52.986;8.894;2023-03-20T00:38:43;26.15;;;11.25;;
78443;SDS011;67739;52.986;8.894;2023-03-20T00:41:19;25.17;;;10.93;;
78443;SDS011;67739;52.986;8.894;2023-03-20T00:43:48;23.33;;;11.05;;
78443;SDS011;67739;52.986;8.894;2023-03-20T00:46:17;27.42;;;11.80;;
78443;SDS011;67739;52.986;8.894;2023-03-20T00:48:43;25.65;;;12.43;;
78443;SDS011;67739;52.986;8.894;2023-03-20T00:51:09;27.38;;;11.95;;
78443;SDS011;67739;52.986;8.894;2023-03-20T00:53:34;28.33;;;13.52;;
78443;SDS011;67739;52.986;8.894;2023-03-20T00:56:00;30.00;;;11.77;;
78443;SDS011;67739;52.986;8.894;2023-03-20T00:58:26;23.92;;;11.45;;
78443;SDS011;67739;52.986;8.894;2023-03-20T01:00:52;23.95;;;11.05;;
78443;SDS011;67739;52.986;8.894;2023-03-20T01:03:21;27.60;;;10.68;;
78443;SDS011;67739;52.986;8.894;2023-03-20T01:05:48;26.20;;;11.23;;
78443;SDS011;67739;52.986;8.894;2023-03-20T01:08:24;30.55;;;12.68;;
78443;SDS011;67739;52.986;8.894;2023-03-20T01:10:52;31.70;;;12.68;;
78443;SDS011;67739;52.986;8.894;2023-03-20T01:13:20;33.63;;;14.45;;
78443;SDS011;67739;52.986;8.894;2023-03-20T01:15:49;32.00;;;12.88;;
78443;SDS011;67739;52.986;8.894;2023-03-20T01:18:15;30.23;;;14.13;;
78443;SDS011;67739;52.986;8.894;2023-03-20T01:20:42;39.15;;;15.68;;
78443;SDS011;67739;52.986;8.894;2023-03-20T01:23:08;35.10;;;13.25;;
78443;SDS011;67739;52.986;8.894;2023-03-20T01:25:34;32.85;;;13.38;;
78443;SDS011;67739;52.986;8.894;2023-03-20T01:28:00;29.23;;;13.55;;
78443;SDS011;67739;52.986;8.894;2023-03-20T01:30:28;30.20;;;12.50;;
78443;SDS011;67739;52.986;8.894;2023-03-20T01:32:55;26.02;;;11.05;;
78443;SDS011;67739;52.986;8.894;2023-03-20T01:35:22;24.55;;;10.52;;
78443;SDS011;67739;52.986;8.894;2023-03-20T01:37:51;23.23;;;10.32;;
78443;SDS011;67739;52.986;8.894;2023-03-20T01:42:57;23.42;;;9.00;;
78443;SDS011;67739;52.986;8.894;2023-03-20T01:45:25;23.15;;;9.63;;
78443;SDS011;67739;52.986;8.894;2023-03-20T01:47:55;18.38;;;8.10;;
78443;SDS011;67739;52.986;8.894;2023-03-20T01:50:32;23.17;;;8.13;;
78443;SDS011;67739;52.986;8.894;2023-03-20T01:53:09;20.95;;;7.10;;
78443;SDS011;67739;52.986;8.894;2023-03-20T01:55:39;13.32;;;5.60;;
78443;SDS011;67739;52.986;8.894;2023-03-20T01:58:08;16.92;;;6.57;;
78443;SDS011;67739;52.986;8.894;2023-03-20T02:00:40;15.35;;;5.75;;
78443;SDS011;67739;52.986;8.894;2023-03-20T02:03:06;16.95;;;6.97;;
78443;SDS011;67739;52.986;8.894;2023-03-20T02:05:33;15.55;;;7.03;;
78443;SDS011;67739;52.986;8.894;2023-03-20T02:08:07;17.83;;;7.13;;
78443;SDS011;67739;52.986;8.894;2023-03-20T02:10:40;14.10;;;6.60;;
78443;SDS011;67739;52.986;8.894;2023-03-20T02:13:08;13.57;;;5.53;;
78443;SDS011;67739;52.986;8.894;2023-03-20T02:15:35;12.45;;;4.45;;
78443;SDS011;67739;52.986;8.894;2023-03-20T02:18:00;11.55;;;4.40;;
78443;SDS011;67739;52.986;8.894;2023-03-20T02:43:10;9.20;;;3.17;;
78443;SDS011;67739;52.986;8.894;2023-03-20T02:45:43;7.32;;;2.40;;
78443;SDS011;67739;52.986;8.894;2023-03-20T02:51:21;7.57;;;2.28;;
78443;SDS011;67739;52.986;8.894;2023-03-20T02:53:54;8.63;;;2.90;;
78443;SDS011;67739;52.986;8.894;2023-03-20T02:56:36;6.72;;;1.70;;
78443;SDS011;67739;52.986;8.894;2023-03-20T02:59:20;8.38;;;2.67;;
78443;SDS011;67739;52.986;8.894;2023-03-20T03:01:55;7.07;;;2.20;;
78443;SDS011;67739;52.986;8.894;2023-03-20T03:04:40;7.50;;;2.50;;
78443;SDS011;67739;52.986;8.894;2023-03-20T03:07:13;7.35;;;2.55;;
78443;SDS011;67739;52.986;8.894;2023-03-20T03:09:45;8.68;;;2.20;;
78443;SDS011;67739;52.986;8.894;2023-03-20T03:12:26;7.57;;;2.08;;
78443;SDS011;67739;52.986;8.894;2023-03-20T03:14:57;11.68;;;2.28;;
78443;SDS011;67739;52.986;8.894;2023-03-20T03:17:27;7.30;;;2.42;;
78443;SDS011;67739;52.986;8.894;2023-03-20T03:19:57;7.85;;;2.50;;
78443;SDS011;67739;52.986;8.894;2023-03-20T03:22:26;6.47;;;2.13;;
78443;SDS011;67739;52.986;8.894;2023-03-20T03:24:52;8.45;;;2.85;;
78443;SDS011;67739;52.986;8.894;2023-03-20T03:27:20;6.88;;;2.45;;
78443;SDS011;67739;52.986;8.894;2023-03-20T03:29:54;7.63;;;2.13;;
78443;SDS011;67739;52.986;8.894;2023-03-20T03:32:22;8.52;;;2.92;;
78443;SDS011;67739;52.986;8.894;2023-03-20T03:34:51;9.55;;;2.97;;
78443;SDS011;67739;52.986;8.894;2023-03-20T03:37:39;8.45;;;2.67;;
78443;SDS011;67739;52.986;8.894;2023-03-20T03:40:29;8.00;;;2.55;;
78443;SDS011;67739;52.986;8.894;2023-03-20T03:43:19;8.43;;;2.47;;
78443;SDS011;67739;52.986;8.894;2023-03-20T03:45:56;10.75;;;3.22;;
78443;SDS011;67739;52.986;8.894;2023-03-20T03:48:33;7.03;;;1.77;;
78443;SDS011;67739;52.986;8.894;2023-03-20T03:51:06;9.40;;;2.40;;
78443;SDS011;67739;52.986;8.894;2023-03-20T03:53:37;9.05;;;2.40;;
78443;SDS011;67739;52.986;8.894;2023-03-20T03:56:07;8.40;;;3.00;;
78443;SDS011;67739;52.986;8.894;2023-03-20T03:58:37;8.52;;;2.83;;
78443;SDS011;67739;52.986;8.894;2023-03-20T04:01:05;8.70;;;2.58;;
78443;SDS011;67739;52.986;8.894;2023-03-20T04:03:36;7.78;;;2.33;;
78443;SDS011;67739;52.986;8.894;2023-03-20T04:06:04;8.23;;;2.15;;
78443;SDS011;67739;52.986;8.894;2023-03-20T04:08:33;9.68;;;2.95;;
78443;SDS011;67739;52.986;8.894;2023-03-20T04:10:58;8.40;;;2.30;;
78443;SDS011;67739;52.986;8.894;2023-03-20T04:13:23;8.80;;;2.83;;
78443;SDS011;67739;52.986;8.894;2023-03-20T04:15:49;8.38;;;3.08;;
78443;SDS011;67739;52.986;8.894;2023-03-20T04:18:15;7.65;;;2.05;;
78443;SDS011;67739;52.986;8.894;2023-03-20T04:20:42;9.65;;;2.75;;
78443;SDS011;67739;52.986;8.894;2023-03-20T04:23:08;9.20;;;2.70;;
78443;SDS011;67739;52.986;8.894;2023-03-20T04:25:34;9.15;;;2.47;;
78443;SDS011;67739;52.986;8.894;2023-03-20T04:27:59;10.43;;;3.35;;
78443;SDS011;67739;52.986;8.894;2023-03-20T04:30:24;9.82;;;3.58;;
78443;SDS011;67739;52.986;8.894;2023-03-20T04:32:50;10.23;;;3.40;;
78443;SDS011;67739;52.986;8.894;2023-03-20T04:35:15;9.55;;;2.70;;
78443;SDS011;67739;52.986;8.894;2023-03-20T04:37:40;10.15;;;3.50;;
78443;SDS011;67739;52.986;8.894;2023-03-20T04:40:06;11.68;;;3.45;;
78443;SDS011;67739;52.986;8.894;2023-03-20T04:42:32;9.35;;;3.47;;
78443;SDS011;67739;52.986;8.894;2023-03-20T04:44:57;9.60;;;2.92;;
78443;SDS011;67739;52.986;8.894;2023-03-20T04:47:23;9.77;;;3.75;;
78443;SDS011;67739;52.986;8.894;2023-03-20T04:49:48;11.07;;;3.83;;
78443;SDS011;67739;52.986;8.894;2023-03-20T04:52:13;10.43;;;3.10;;
78443;SDS011;67739;52.986;8.894;2023-03-20T04:54:38;10.60;;;3.60;;
78443;SDS011;67739;52.986;8.894;2023-03-20T04:57:04;8.57;;;3.17;;
78443;SDS011;67739;52.986;8.894;2023-03-20T04:59:29;10.80;;;3.65;;
78443;SDS011;67739;52.986;8.894;2023-03-20T05:01:54;11.18;;;3.30;;
78443;SDS011;67739;52.986;8.894;2023-03-20T05:04:20;8.93;;;3.15;;
78443;SDS011;67739;52.986;8.894;2023-03-20T05:06:46;9.82;;;3.40;;
78443;SDS011;67739;52.986;8.894;2023-03-20T05:09:13;11.25;;;3.60;;
78443;SDS011;67739;52.986;8.894;2023-03-20T05:11:39;11.68;;;4.47;;
78443;SDS011;67739;52.986;8.894;2023-03-20T05:14:05;10.75;;;4.00;;
78443;SDS011;67739;52.986;8.894;2023-03-20T05:16:30;11.40;;;3.75;;
78443;SDS011;67739;52.986;8.894;2023-03-20T05:18:56;9.52;;;3.72;;
78443;SDS011;67739;52.986;8.894;2023-03-20T05:21:21;10.40;;;3.95;;
78443;SDS011;67739;52.986;8.894;2023-03-20T05:23:47;11.85;;;4.15;;
78443;SDS011;67739;52.986;8.894;2023-03-20T05:26:12;10.93;;;3.95;;
78443;SDS011;67739;52.986;8.894;2023-03-20T05:28:37;13.07;;;3.92;;
78443;SDS011;67739;52.986;8.894;2023-03-20T05:31:03;12.65;;;4.43;;
78443;SDS011;67739;52.986;8.894;2023-03-20T05:33:28;11.05;;;3.90;;
78443;SDS011;67739;52.986;8.894;2023-03-20T05:35:54;11.40;;;3.58;;
78443;SDS011;67739;52.986;8.894;2023-03-20T05:38:19;12.05;;;4.70;;
78443;SDS011;67739;52.986;8.894;2023-03-20T05:40:48;11.18;;;3.75;;
78443;SDS011;67739;52.986;8.894;2023-03-20T05:43:13;10.80;;;4.72;;
78443;SDS011;67739;52.986;8.894;2023-03-20T05:45:40;12.73;;;5.22;;
78443;SDS011;67739;52.986;8.894;2023-03-20T05:48:06;14.20;;;4.97;;
78443;SDS011;67739;52.986;8.894;2023-03-20T05:50:32;13.80;;;5.18;;
78443;SDS011;67739;52.986;8.894;2023-03-20T05:52:57;14.13;;;4.78;;
78443;SDS011;67739;52.986;8.894;2023-03-20T05:55:23;12.18;;;4.68;;
78443;SDS011;67739;52.986;8.894;2023-03-20T05:57:48;11.20;;;4.13;;
78443;SDS011;67739;52.986;8.894;2023-03-20T06:00:13;12.75;;;4.70;;
78443;SDS011;67739;52.986;8.894;2023-03-20T06:02:39;12.70;;;4.32;;
78443;SDS011;67739;52.986;8.894;2023-03-20T06:05:05;15.05;;;5.80;;
78443;SDS011;67739;52.986;8.894;2023-03-20T06:07:30;11.13;;;3.40;;
78443;SDS011;67739;52.986;8.894;2023-03-20T06:09:56;14.88;;;4.88;;
78443;SDS011;67739;52.986;8.894;2023-03-20T06:12:21;12.63;;;4.30;;
78443;SDS011;67739;52.986;8.894;2023-03-20T06:14:47;13.90;;;4.85;;
78443;SDS011;67739;52.986;8.894;2023-03-20T06:17:12;13.52;;;6.25;;
78443;SDS011;67739;52.986;8.894;2023-03-20T06:19:37;12.40;;;5.03;;
78443;SDS011;67739;52.986;8.894;2023-03-20T06:22:03;12.13;;;4.47;;
78443;SDS011;67739;52.986;8.894;2023-03-20T06:24:28;15.00;;;5.63;;
78443;SDS011;67739;52.986;8.894;2023-03-20T06:26:54;13.52;;;5.18;;
78443;SDS011;67739;52.986;8.894;2023-03-20T06:29:19;13.15;;;4.47;;
78443;SDS011;67739;52.986;8.894;2023-03-20T06:31:45;13.23;;;4.97;;
78443;SDS011;67739;52.986;8.894;2023-03-20T06:34:10;14.88;;;4.97;;
78443;SDS011;67739;52.986;8.894;2023-03-20T06:36:35;14.95;;;5.95;;
78443;SDS011;67739;52.986;8.894;2023-03-20T06:39:02;12.15;;;4.25;;
78443;SDS011;67739;52.986;8.894;2023-03-20T06:41:27;12.30;;;4.80;;
78443;SDS011;67739;52.986;8.894;2023-03-20T06:43:53;14.02;;;4.18;;
78443;SDS011;67739;52.986;8.894;2023-03-20T06:46:19;12.65;;;4.82;;
78443;SDS011;67739;52.986;8.894;2023-03-20T06:48:45;14.82;;;5.05;;
78443;SDS011;67739;52.986;8.894;2023-03-20T06:51:11;11.80;;;4.82;;
78443;SDS011;67739;52.986;8.894;2023-03-20T06:53:36;12.88;;;5.38;;
78443;SDS011;67739;52.986;8.894;2023-03-20T06:56:03;14.50;;;4.78;;
78443;SDS011;67739;52.986;8.894;2023-03-20T06:58:29;13.48;;;5.35;;
78443;SDS011;67739;52.986;8.894;2023-03-20T07:00:54;10.23;;;3.75;;
78443;SDS011;67739;52.986;8.894;2023-03-20T07:03:20;11.73;;;4.18;;
78443;SDS011;67739;52.986;8.894;2023-03-20T07:05:45;11.65;;;4.10;;
78443;SDS011;67739;52.986;8.894;2023-03-20T07:08:11;10.93;;;4.80;;
78443;SDS011;67739;52.986;8.894;2023-03-20T07:10:36;13.13;;;4.93;;
78443;SDS011;67739;52.986;8.894;2023-03-20T07:13:02;11.73;;;4.60;;
78443;SDS011;67739;52.986;8.894;2023-03-20T07:15:28;13.13;;;4.53;;
78443;SDS011;67739;52.986;8.894;2023-03-20T07:17:54;13.00;;;4.35;;
78443;SDS011;67739;52.986;8.894;2023-03-20T07:20:20;12.50;;;4.88;;
78443;SDS011;67739;52.986;8.894;2023-03-20T07:22:46;12.90;;;4.63;;
78443;SDS011;67739;52.986;8.894;2023-03-20T07:25:12;15.18;;;5.15;;
78443;SDS011;67739;52.986;8.894;2023-03-20T07:27:38;13.95;;;5.30;;
78443;SDS011;67739;52.986;8.894;2023-03-20T07:30:04;12.65;;;5.03;;
78443;SDS011;67739;52.986;8.894;2023-03-20T07:32:30;13.02;;;4.20;;
78443;SDS011;67739;52.986;8.894;2023-03-20T07:34:56;11.65;;;4.28;;
78443;SDS011;67739;52.986;8.894;2023-03-20T07:37:21;9.85;;;3.80;;
78443;SDS011;67739;52.986;8.894;2023-03-20T07:39:46;11.85;;;4.53;;
78443;SDS011;67739;52.986;8.894;2023-03-20T07:42:12;12.93;;;4.35;;
78443;SDS011;67739;52.986;8.894;2023-03-20T07:44:37;11.30;;;4.10;;
78443;SDS011;67739;52.986;8.894;2023-03-20T07:47:03;15.52;;;5.35;;
78443;SDS011;67739;52.986;8.894;2023-03-20T07:49:30;11.98;;;4.40;;
78443;SDS011;67739;52.986;8.894;2023-03-20T07:51:55;14.90;;;4.18;;
78443;SDS011;67739;52.986;8.894;2023-03-20T07:54:21;11.45;;;4.85;;
78443;SDS011;67739;52.986;8.894;2023-03-20T07:56:46;11.77;;;4.78;;
78443;SDS011;67739;52.986;8.894;2023-03-20T07:59:12;12.02;;;5.05;;
78443;SDS011;67739;52.986;8.894;2023-03-20T08:01:37;10.90;;;4.45;;
78443;SDS011;67739;52.986;8.894;2023-03-20T08:04:02;10.75;;;4.18;;
78443;SDS011;67739;52.986;8.894;2023-03-20T08:06:28;10.05;;;3.65;;
78443;SDS011;67739;52.986;8.894;2023-03-20T08:08:53;11.93;;;4.35;;
78443;SDS011;67739;52.986;8.894;2023-03-20T08:11:19;11.35;;;4.85;;
78443;SDS011;67739;52.986;8.894;2023-03-20T08:13:44;11.10;;;3.92;;
78443;SDS011;67739;52.986;8.894;2023-03-20T08:16:10;12.45;;;4.55;;
78443;SDS011;67739;52.986;8.894;2023-03-20T08:18:35;14.13;;;4.15;;
78443;SDS011;67739;52.986;8.894;2023-03-20T08:21:01;14.48;;;4.72;;
78443;SDS011;67739;52.986;8.894;2023-03-20T08:23:26;12.27;;;5.82;;
78443;SDS011;67739;52.986;8.894;2023-03-20T08:25:52;13.00;;;5.40;;
78443;SDS011;67739;52.986;8.894;2023-03-20T08:28:21;14.00;;;5.60;;
78443;SDS011;67739;52.986;8.894;2023-03-20T08:30:47;13.18;;;5.75;;
78443;SDS011;67739;52.986;8.894;2023-03-20T08:33:13;13.73;;;5.95;;
78443;SDS011;67739;52.986;8.894;2023-03-20T08:35:40;14.88;;;5.85;;
78443;SDS011;67739;52.986;8.894;2023-03-20T08:38:08;12.18;;;5.50;;
78443;SDS011;67739;52.986;8.894;2023-03-20T08:40:39;11.07;;;4.80;;
78443;SDS011;67739;52.986;8.894;2023-03-20T08:43:05;14.98;;;5.70;;
78443;SDS011;67739;52.986;8.894;2023-03-20T08:45:30;13.40;;;5.35;;
78443;SDS011;67739;52.986;8.894;2023-03-20T08:47:56;13.32;;;6.15;;
78443;SDS011;67739;52.986;8.894;2023-03-20T08:50:21;13.63;;;5.30;;
78443;SDS011;67739;52.986;8.894;2023-03-20T08:52:46;15.70;;;5.38;;
78443;SDS011;67739;52.986;8.894;2023-03-20T08:55:12;13.85;;;5.07;;
78443;SDS011;67739;52.986;8.894;2023-03-20T08:57:39;13.40;;;5.53;;
78443;SDS011;67739;52.986;8.894;2023-03-20T09:00:05;14.48;;;6.07;;
78443;SDS011;67739;52.986;8.894;2023-03-20T09:02:33;13.20;;;5.82;;
78443;SDS011;67739;52.986;8.894;2023-03-20T09:04:59;13.50;;;5.30;;
78443;SDS011;67739;52.986;8.894;2023-03-20T09:07:25;11.93;;;6.10;;
78443;SDS011;67739;52.986;8.894;2023-03-20T09:09:50;12.10;;;5.90;;
78443;SDS011;67739;52.986;8.894;2023-03-20T09:12:15;13.43;;;5.55;;
78443;SDS011;67739;52.986;8.894;2023-03-20T09:14:41;14.65;;;6.05;;
78443;SDS011;67739;52.986;8.894;2023-03-20T09:17:06;14.13;;;5.97;;
78443;SDS011;67739;52.986;8.894;2023-03-20T09:19:32;11.77;;;5.10;;
78443;SDS011;67739;52.986;8.894;2023-03-20T09:21:58;12.02;;;5.32;;
78443;SDS011;67739;52.986;8.894;2023-03-20T09:24:24;11.77;;;5.47;;
78443;SDS011;67739;52.986;8.894;2023-03-20T09:26:50;13.13;;;6.60;;
78443;SDS011;67739;52.986;8.894;2023-03-20T09:29:16;10.43;;;4.63;;
78443;SDS011;67739;52.986;8.894;2023-03-20T09:31:41;14.05;;;6.07;;
78443;SDS011;67739;52.986;8.894;2023-03-20T09:34:07;12.98;;;5.38;;
78443;SDS011;67739;52.986;8.894;2023-03-20T09:36:32;11.73;;;6.05;;
78443;SDS011;67739;52.986;8.894;2023-03-20T09:38:58;13.38;;;6.38;;
78443;SDS011;67739;52.986;8.894;2023-03-20T09:41:23;13.27;;;4.70;;
78443;SDS011;67739;52.986;8.894;2023-03-20T09:46:42;13.35;;;4.97;;
78443;SDS011;67739;52.986;8.894;2023-03-20T09:54:52;9.85;;;4.65;;
78443;SDS011;67739;52.986;8.894;2023-03-20T09:57:25;13.25;;;4.05;;
78443;SDS011;67739;52.986;8.894;2023-03-20T10:00:16;11.88;;;5.07;;
78443;SDS011;67739;52.986;8.894;2023-03-20T10:02:57;8.45;;;3.42;;
78443;SDS011;67739;52.986;8.894;2023-03-20T10:07:53;11.63;;;4.38;;
78443;SDS011;67739;52.986;8.894;2023-03-20T10:10:21;10.25;;;3.67;;
78443;SDS011;67739;52.986;8.894;2023-03-20T10:15:58;9.18;;;4.18;;
78443;SDS011;67739;52.986;8.894;2023-03-20T10:18:27;13.45;;;4.22;;
78443;SDS011;67739;52.986;8.894;2023-03-20T10:23:32;10.68;;;4.55;;
78443;SDS011;67739;52.986;8.894;2023-03-20T10:26:20;11.95;;;3.88;;
78443;SDS011;67739;52.986;8.894;2023-03-20T10:28:50;11.25;;;3.97;;
78443;SDS011;67739;52.986;8.894;2023-03-20T10:44:50;8.18;;;3.08;;
78443;SDS011;67739;52.986;8.894;2023-03-20T10:47:23;8.70;;;3.05;;
78443;SDS011;67739;52.986;8.894;2023-03-20T10:49:53;12.18;;;3.17;;
78443;SDS011;67739;52.986;8.894;2023-03-20T10:52:24;8.77;;;2.92;;
78443;SDS011;67739;52.986;8.894;2023-03-20T10:54:54;9.35;;;2.83;;
78443;SDS011;67739;52.986;8.894;2023-03-20T10:57:23;7.78;;;2.80;;
78443;SDS011;67739;52.986;8.894;2023-03-20T10:59:50;11.18;;;2.78;;
78443;SDS011;67739;52.986;8.894;2023-03-20T11:02:18;8.50;;;3.13;;
78443;SDS011;67739;52.986;8.894;2023-03-20T11:04:45;9.43;;;2.63;;
78443;SDS011;67739;52.986;8.894;2023-03-20T11:12:38;8.60;;;2.80;;
78443;SDS011;67739;52.986;8.894;2023-03-20T11:17:55;7.88;;;3.17;;
78443;SDS011;67739;52.986;8.894;2023-03-20T11:23:18;8.18;;;2.30;;
78443;SDS011;67739;52.986;8.894;2023-03-20T11:25:49;8.70;;;2.85;;
78443;SDS011;67739;52.986;8.894;2023-03-20T11:30:50;9.95;;;3.70;;
78443;SDS011;67739;52.986;8.894;2023-03-20T11:33:24;9.27;;;3.03;;
78443;SDS011;67739;52.986;8.894;2023-03-20T11:35:51;9.77;;;3.30;;
78443;SDS011;67739;52.986;8.894;2023-03-20T11:38:19;12.60;;;2.85;;
78443;SDS011;67739;52.986;8.894;2023-03-20T11:40:46;9.13;;;2.50;;
78443;SDS011;67739;52.986;8.894;2023-03-20T11:43:14;13.35;;;3.55;;
78443;SDS011;67739;52.986;8.894;2023-03-20T11:45:45;8.73;;;2.83;;
78443;SDS011;67739;52.986;8.894;2023-03-20T11:48:21;9.98;;;3.80;;
78443;SDS011;67739;52.986;8.894;2023-03-20T11:51:02;9.88;;;3.20;;
78443;SDS011;67739;52.986;8.894;2023-03-20T11:53:30;9.35;;;3.33;;
78443;SDS011;67739;52.986;8.894;2023-03-20T11:58:36;8.10;;;2.47;;
78443;SDS011;67739;52.986;8.894;2023-03-20T12:01:23;7.78;;;2.85;;
78443;SDS011;67739;52.986;8.894;2023-03-20T12:06:26;8.85;;;3.20;;
78443;SDS011;67739;52.986;8.894;2023-03-20T12:09:05;8.55;;;2.83;;
78443;SDS011;67739;52.986;8.894;2023-03-20T12:11:46;10.82;;;3.95;;
78443;SDS011;67739;52.986;8.894;2023-03-20T12:14:27;10.73;;;3.63;;
78443;SDS011;67739;52.986;8.894;2023-03-20T12:17:13;9.93;;;3.03;;
78443;SDS011;67739;52.986;8.894;2023-03-20T12:19:52;9.68;;;3.25;;
78443;SDS011;67739;52.986;8.894;2023-03-20T12:22:25;8.48;;;3.35;;
78443;SDS011;67739;52.986;8.894;2023-03-20T12:25:00;7.80;;;2.92;;
78443;SDS011;67739;52.986;8.894;2023-03-20T12:27:36;10.48;;;3.40;;
78443;SDS011;67739;52.986;8.894;2023-03-20T12:30:18;11.52;;;3.45;;
78443;SDS011;67739;52.986;8.894;2023-03-20T12:32:55;10.55;;;3.60;;
78443;SDS011;67739;52.986;8.894;2023-03-20T12:35:28;9.15;;;3.70;;
78443;SDS011;67739;52.986;8.894;2023-03-20T12:37:56;13.35;;;4.03;;
78443;SDS011;67739;52.986;8.894;2023-03-20T12:40:23;9.73;;;3.88;;
78443;SDS011;67739;52.986;8.894;2023-03-20T12:46:10;11.37;;;3.23;;
78443;SDS011;67739;52.986;8.894;2023-03-20T12:53:25;10.52;;;4.25;;
78443;SDS011;67739;52.986;8.894;2023-03-20T12:59:09;8.80;;;3.90;;
78443;SDS011;67739;52.986;8.894;2023-03-20T13:01:44;11.23;;;4.63;;
78443;SDS011;67739;52.986;8.894;2023-03-20T13:09:34;11.23;;;3.65;;
78443;SDS011;67739;52.986;8.894;2023-03-20T13:17:45;9.10;;;2.63;;
78443;SDS011;67739;52.986;8.894;2023-03-20T13:20:23;10.70;;;4.10;;
78443;SDS011;67739;52.986;8.894;2023-03-20T13:31:41;8.73;;;3.35;;
78443;SDS011;67739;52.986;8.894;2023-03-20T13:34:11;11.07;;;3.33;;
78443;SDS011;67739;52.986;8.894;2023-03-20T13:39:29;10.35;;;3.83;;
78443;SDS011;67739;52.986;8.894;2023-03-20T13:41:56;10.50;;;4.32;;
78443;SDS011;67739;52.986;8.894;2023-03-20T13:44:24;8.45;;;3.83;;
78443;SDS011;67739;52.986;8.894;2023-03-20T13:49:36;11.02;;;3.53;;
78443;SDS011;67739;52.986;8.894;2023-03-20T13:52:15;10.13;;;3.08;;
78443;SDS011;67739;52.986;8.894;2023-03-20T13:58:02;9.65;;;3.25;;
78443;SDS011;67739;52.986;8.894;2023-03-20T14:03:28;9.77;;;3.72;;
78443;SDS011;67739;52.986;8.894;2023-03-20T14:05:57;8.95;;;3.60;;
78443;SDS011;67739;52.986;8.894;2023-03-20T14:10:55;10.20;;;3.75;;
78443;SDS011;67739;52.986;8.894;2023-03-20T14:13:28;9.27;;;3.50;;
78443;SDS011;67739;52.986;8.894;2023-03-20T14:15:55;8.35;;;3.30;;
78443;SDS011;67739;52.986;8.894;2023-03-20T14:18:21;8.77;;;2.83;;
78443;SDS011;67739;52.986;8.894;2023-03-20T14:20:58;9.90;;;3.40;;
78443;SDS011;67739;52.986;8.894;2023-03-20T14:23:36;7.55;;;3.05;;
78443;SDS011;67739;52.986;8.894;2023-03-20T14:26:04;10.27;;;3.97;;
78443;SDS011;67739;52.986;8.894;2023-03-20T14:28:44;8.60;;;3.20;;
78443;SDS011;67739;52.986;8.894;2023-03-20T14:34:00;8.27;;;3.42;;
78443;SDS011;67739;52.986;8.894;2023-03-20T14:39:25;8.20;;;3.40;;
78443;SDS011;67739;52.986;8.894;2023-03-20T14:52:54;8.23;;;2.08;;
78443;SDS011;67739;52.986;8.894;2023-03-20T14:58:00;6.53;;;2.60;;
78443;SDS011;67739;52.986;8.894;2023-03-20T15:00:49;7.80;;;2.65;;
78443;SDS011;67739;52.986;8.894;2023-03-20T15:03:15;10.50;;;2.53;;
78443;SDS011;67739;52.986;8.894;2023-03-20T15:05:41;8.23;;;2.50;;
78443;SDS011;67739;52.986;8.894;2023-03-20T15:08:21;9.20;;;2.85;;
78443;SDS011;67739;52.986;8.894;2023-03-20T15:10:53;8.02;;;2.58;;
78443;SDS011;67739;52.986;8.894;2023-03-20T15:16:24;10.65;;;3.25;;
78443;SDS011;67739;52.986;8.894;2023-03-20T15:18:42;10.63;;;3.13;;
78443;SDS011;67739;52.986;8.894;2023-03-20T15:21:14;8.45;;;2.60;;
78443;SDS011;67739;52.986;8.894;2023-03-20T15:23:40;9.70;;;3.20;;
78443;SDS011;67739;52.986;8.894;2023-03-20T15:26:09;9.70;;;4.10;;
78443;SDS011;67739;52.986;8.894;2023-03-20T15:28:36;8.30;;;2.95;;
78443;SDS011;67739;52.986;8.894;2023-03-20T15:31:02;8.57;;;2.35;;
78443;SDS011;67739;52.986;8.894;2023-03-20T15:33:34;6.65;;;2.50;;
78443;SDS011;67739;52.986;8.894;2023-03-20T15:36:10;6.75;;;2.65;;
78443;SDS011;67739;52.986;8.894;2023-03-20T15:38:41;6.97;;;2.78;;
78443;SDS011;67739;52.986;8.894;2023-03-20T15:41:21;9.80;;;3.03;;
78443;SDS011;67739;52.986;8.894;2023-03-20T15:43:49;9.30;;;2.60;;
78443;SDS011;67739;52.986;8.894;2023-03-20T15:46:14;9.32;;;2.95;;
78443;SDS011;67739;52.986;8.894;2023-03-20T15:48:40;8.20;;;2.78;;
78443;SDS011;67739;52.986;8.894;2023-03-20T15:51:05;10.80;;;3.42;;
78443;SDS011;67739;52.986;8.894;2023-03-20T15:53:32;10.73;;;3.35;;
78443;SDS011;67739;52.986;8.894;2023-03-20T15:56:06;11.10;;;3.33;;
78443;SDS011;67739;52.986;8.894;2023-03-20T15:58:34;11.25;;;4.05;;
78443;SDS011;67739;52.986;8.894;2023-03-20T16:01:03;9.02;;;2.97;;
78443;SDS011;67739;52.986;8.894;2023-03-20T16:03:30;10.77;;;3.35;;
78443;SDS011;67739;52.986;8.894;2023-03-20T16:05:59;8.07;;;2.80;;
78443;SDS011;67739;52.986;8.894;2023-03-20T16:08:29;12.25;;;4.05;;
78443;SDS011;67739;52.986;8.894;2023-03-20T16:13:24;8.23;;;3.13;;
78443;SDS011;67739;52.986;8.894;2023-03-20T16:15:51;7.82;;;2.75;;
78443;SDS011;67739;52.986;8.894;2023-03-20T16:18:18;10.40;;;3.47;;
78443;SDS011;67739;52.986;8.894;2023-03-20T16:21:04;8.27;;;3.38;;
78443;SDS011;67739;52.986;8.894;2023-03-20T16:23:33;8.30;;;2.75;;
78443;SDS011;67739;52.986;8.894;2023-03-20T16:26:02;8.45;;;2.80;;
78443;SDS011;67739;52.986;8.894;2023-03-20T16:28:30;8.55;;;3.38;;
78443;SDS011;67739;52.986;8.894;2023-03-20T16:31:02;8.73;;;2.80;;
78443;SDS011;67739;52.986;8.894;2023-03-20T16:33:32;7.70;;;3.10;;
78443;SDS011;67739;52.986;8.894;2023-03-20T16:35:59;7.88;;;2.80;;
78443;SDS011;67739;52.986;8.894;2023-03-20T16:38:29;8.48;;;2.60;;
78443;SDS011;67739;52.986;8.894;2023-03-20T16:41:12;9.77;;;2.67;;
78443;SDS011;67739;52.986;8.894;2023-03-20T16:43:58;6.03;;;2.47;;
78443;SDS011;67739;52.986;8.894;2023-03-20T16:46:29;7.45;;;2.55;;
78443;SDS011;67739;52.986;8.894;2023-03-20T16:48:58;6.80;;;2.80;;
78443;SDS011;67739;52.986;8.894;2023-03-20T16:51:58;7.80;;;2.42;;
78443;SDS011;67739;52.986;8.894;2023-03-20T16:54:26;12.30;;;3.13;;
78443;SDS011;67739;52.986;8.894;2023-03-20T16:56:55;8.75;;;2.25;;
78443;SDS011;67739;52.986;8.894;2023-03-20T16:59:21;6.80;;;2.13;;
78443;SDS011;67739;52.986;8.894;2023-03-20T17:01:48;8.40;;;2.65;;
78443;SDS011;67739;52.986;8.894;2023-03-20T17:04:23;6.30;;;2.22;;
78443;SDS011;67739;52.986;8.894;2023-03-20T17:07:13;7.40;;;2.58;;
78443;SDS011;67739;52.986;8.894;2023-03-20T17:12:24;10.30;;;3.38;;
78443;SDS011;67739;52.986;8.894;2023-03-20T17:14:51;4.60;;;2.10;;
78443;SDS011;67739;52.986;8.894;2023-03-20T17:17:18;7.78;;;2.30;;
78443;SDS011;67739;52.986;8.894;2023-03-20T17:19:45;8.70;;;2.88;;
78443;SDS011;67739;52.986;8.894;2023-03-20T17:22:18;7.10;;;2.50;;